sensor_id;sensor_type;location;lat;lon;timestamp;P1;durP1;ratioP1;P2;durP2;ratioP2
8165;SDS011;4124;50.856;3.634;2022-07-03T00:00:04;5.80;;;1.30;;
8165;SDS011;4124;50.856;3.634;2022-07-03T00:02:29;1.97;;;1.20;;
8165;SDS011;4124;50.856;3.634;2022-07-03T00:04:54;1.40;;;1.10;;
8165;SDS011;4124;50.856;3.634;2022-07-03T00:07:20;2.70;;;1.43;;
8165;SDS011;4124;50.856;3.634;2022-07-03T00:09:45;3.00;;;1.20;;
8165;SDS011;4124;50.856;3.634;2022-07-03T00:12:10;2.07;;;1.30;;
8165;SDS011;4124;50.856;3.634;2022-07-03T00:14:36;1.53;;;1.23;;
8165;SDS011;4124;50.856;3.634;2022-07-03T00:17:01;1.70;;;1.20;;
8165;SDS011;4124;50.856;3.634;2022-07-03T00:19:27;2.13;;;1.30;;
8165;SDS011;4124;50.856;3.634;2022-07-03T00:21:53;3.50;;;1.60;;
8165;SDS011;4124;50.856;3.634;2022-07-03T00:26:45;2.20;;;1.40;;
8165;SDS011;4124;50.856;3.634;2022-07-03T00:29:13;2.33;;;1.37;;
8165;SDS011;4124;50.856;3.634;2022-07-03T00:31:40;2.17;;;1.40;;
8165;SDS011;4124;50.856;3.634;2022-07-03T00:34:05;1.30;;;1.20;;
8165;SDS011;4124;50.856;3.634;2022-07-03T00:36:34;2.77;;;1.20;;
8165;SDS011;4124;50.856;3.634;2022-07-03T00:39:00;1.63;;;1.30;;
8165;SDS011;4124;50.856;3.634;2022-07-03T00:41:29;1.87;;;1.20;;
8165;SDS011;4124;50.856;3.634;2022-07-03T00:43:55;1.60;;;1.13;;
8165;SDS011;4124;50.856;3.634;2022-07-03T00:46:24;1.63;;;1.30;;
8165;SDS011;4124;50.856;3.634;2022-07-03T00:48:51;1.67;;;1.47;;
8165;SDS011;4124;50.856;3.634;2022-07-03T00:51:18;2.07;;;1.50;;
8165;SDS011;4124;50.856;3.634;2022-07-03T00:53:44;4.07;;;1.60;;
8165;SDS011;4124;50.856;3.634;2022-07-03T00:56:10;2.83;;;1.20;;
8165;SDS011;4124;50.856;3.634;2022-07-03T00:58:38;2.03;;;1.40;;
8165;SDS011;4124;50.856;3.634;2022-07-03T01:01:03;3.60;;;1.60;;
8165;SDS011;4124;50.856;3.634;2022-07-03T01:03:28;2.47;;;1.23;;
8165;SDS011;4124;50.856;3.634;2022-07-03T01:05:57;1.53;;;1.00;;
8165;SDS011;4124;50.856;3.634;2022-07-03T01:08:27;1.53;;;1.20;;
8165;SDS011;4124;50.856;3.634;2022-07-03T01:18:48;1.53;;;1.20;;
8165;SDS011;4124;50.856;3.634;2022-07-03T01:21:28;2.10;;;1.30;;
8165;SDS011;4124;50.856;3.634;2022-07-03T01:24:02;2.03;;;1.40;;
8165;SDS011;4124;50.856;3.634;2022-07-03T01:26:33;1.37;;;1.03;;
8165;SDS011;4124;50.856;3.634;2022-07-03T01:29:02;1.97;;;1.30;;
8165;SDS011;4124;50.856;3.634;2022-07-03T01:31:28;1.37;;;1.20;;
8165;SDS011;4124;50.856;3.634;2022-07-03T01:33:55;1.60;;;1.30;;
8165;SDS011;4124;50.856;3.634;2022-07-03T01:36:21;1.23;;;1.13;;
8165;SDS011;4124;50.856;3.634;2022-07-03T01:38:47;2.20;;;1.40;;
8165;SDS011;4124;50.856;3.634;2022-07-03T01:41:13;1.83;;;1.20;;
8165;SDS011;4124;50.856;3.634;2022-07-03T01:43:44;1.20;;;1.10;;
8165;SDS011;4124;50.856;3.634;2022-07-03T01:46:11;1.67;;;1.13;;
8165;SDS011;4124;50.856;3.634;2022-07-03T01:48:37;3.40;;;1.10;;
8165;SDS011;4124;50.856;3.634;2022-07-03T01:51:06;1.40;;;1.15;;
8165;SDS011;4124;50.856;3.634;2022-07-03T01:53:31;1.73;;;1.40;;
8165;SDS011;4124;50.856;3.634;2022-07-03T01:55:57;1.40;;;1.10;;
8165;SDS011;4124;50.856;3.634;2022-07-03T01:58:23;1.20;;;1.00;;
8165;SDS011;4124;50.856;3.634;2022-07-03T02:03:17;2.10;;;1.27;;
8165;SDS011;4124;50.856;3.634;2022-07-03T02:05:47;4.50;;;1.20;;
8165;SDS011;4124;50.856;3.634;2022-07-03T02:13:37;2.03;;;1.00;;
8165;SDS011;4124;50.856;3.634;2022-07-03T02:16:03;1.30;;;1.00;;
8165;SDS011;4124;50.856;3.634;2022-07-03T02:18:31;3.83;;;1.20;;
8165;SDS011;4124;50.856;3.634;2022-07-03T02:21:04;2.03;;;1.20;;
8165;SDS011;4124;50.856;3.634;2022-07-03T02:23:32;2.43;;;1.20;;
8165;SDS011;4124;50.856;3.634;2022-07-03T02:26:00;1.30;;;1.10;;
8165;SDS011;4124;50.856;3.634;2022-07-03T02:31:11;1.40;;;1.00;;
8165;SDS011;4124;50.856;3.634;2022-07-03T02:33:37;1.60;;;1.13;;
8165;SDS011;4124;50.856;3.634;2022-07-03T02:36:03;1.30;;;1.10;;
8165;SDS011;4124;50.856;3.634;2022-07-03T02:38:30;1.87;;;1.03;;
8165;SDS011;4124;50.856;3.634;2022-07-03T02:41:15;4.53;;;1.20;;
8165;SDS011;4124;50.856;3.634;2022-07-03T02:46:18;3.23;;;1.67;;
8165;SDS011;4124;50.856;3.634;2022-07-03T02:51:43;1.50;;;1.40;;
8165;SDS011;4124;50.856;3.634;2022-07-03T02:54:11;1.20;;;1.10;;
8165;SDS011;4124;50.856;3.634;2022-07-03T02:56:43;2.17;;;1.23;;
8165;SDS011;4124;50.856;3.634;2022-07-03T03:01:57;1.60;;;1.40;;
8165;SDS011;4124;50.856;3.634;2022-07-03T03:06:55;1.70;;;1.23;;
8165;SDS011;4124;50.856;3.634;2022-07-03T03:09:32;6.63;;;2.03;;
8165;SDS011;4124;50.856;3.634;2022-07-03T03:12:00;3.87;;;1.33;;
8165;SDS011;4124;50.856;3.634;2022-07-03T03:14:27;1.87;;;1.20;;
8165;SDS011;4124;50.856;3.634;2022-07-03T03:16:55;1.40;;;1.23;;
8165;SDS011;4124;50.856;3.634;2022-07-03T03:19:21;2.23;;;1.77;;
8165;SDS011;4124;50.856;3.634;2022-07-03T03:21:57;1.90;;;1.30;;
8165;SDS011;4124;50.856;3.634;2022-07-03T03:24:23;1.70;;;1.47;;
8165;SDS011;4124;50.856;3.634;2022-07-03T03:26:49;1.47;;;1.30;;
8165;SDS011;4124;50.856;3.634;2022-07-03T03:29:15;1.67;;;1.10;;
8165;SDS011;4124;50.856;3.634;2022-07-03T03:31:40;2.07;;;1.27;;
8165;SDS011;4124;50.856;3.634;2022-07-03T03:34:05;1.30;;;1.17;;
8165;SDS011;4124;50.856;3.634;2022-07-03T03:36:31;3.30;;;1.37;;
8165;SDS011;4124;50.856;3.634;2022-07-03T03:38:56;2.37;;;1.30;;
8165;SDS011;4124;50.856;3.634;2022-07-03T03:41:22;1.90;;;1.33;;
8165;SDS011;4124;50.856;3.634;2022-07-03T03:43:47;2.03;;;1.57;;
8165;SDS011;4124;50.856;3.634;2022-07-03T03:46:13;1.40;;;1.23;;
8165;SDS011;4124;50.856;3.634;2022-07-03T03:48:39;1.33;;;1.13;;
8165;SDS011;4124;50.856;3.634;2022-07-03T03:51:05;1.40;;;1.13;;
8165;SDS011;4124;50.856;3.634;2022-07-03T03:53:30;2.07;;;1.27;;
8165;SDS011;4124;50.856;3.634;2022-07-03T03:56:02;2.47;;;1.30;;
8165;SDS011;4124;50.856;3.634;2022-07-03T03:58:28;1.40;;;1.20;;
8165;SDS011;4124;50.856;3.634;2022-07-03T04:00:57;2.00;;;1.20;;
8165;SDS011;4124;50.856;3.634;2022-07-03T04:03:23;1.40;;;1.17;;
8165;SDS011;4124;50.856;3.634;2022-07-03T04:05:48;2.40;;;1.60;;
8165;SDS011;4124;50.856;3.634;2022-07-03T04:08:13;1.97;;;1.63;;
8165;SDS011;4124;50.856;3.634;2022-07-03T04:10:39;1.70;;;1.10;;
8165;SDS011;4124;50.856;3.634;2022-07-03T04:13:04;3.73;;;1.60;;
8165;SDS011;4124;50.856;3.634;2022-07-03T04:15:29;1.47;;;1.30;;
8165;SDS011;4124;50.856;3.634;2022-07-03T04:17:54;3.30;;;1.67;;
8165;SDS011;4124;50.856;3.634;2022-07-03T04:20:20;2.03;;;1.57;;
8165;SDS011;4124;50.856;3.634;2022-07-03T04:22:45;2.23;;;1.40;;
8165;SDS011;4124;50.856;3.634;2022-07-03T04:25:10;1.93;;;1.40;;
8165;SDS011;4124;50.856;3.634;2022-07-03T04:27:36;2.53;;;1.60;;
8165;SDS011;4124;50.856;3.634;2022-07-03T04:30:01;3.00;;;1.63;;
8165;SDS011;4124;50.856;3.634;2022-07-03T04:32:26;1.70;;;1.20;;
8165;SDS011;4124;50.856;3.634;2022-07-03T04:34:52;2.13;;;1.53;;
8165;SDS011;4124;50.856;3.634;2022-07-03T04:37:17;1.90;;;1.40;;
8165;SDS011;4124;50.856;3.634;2022-07-03T04:39:42;1.70;;;1.50;;
8165;SDS011;4124;50.856;3.634;2022-07-03T04:42:08;2.60;;;1.37;;
8165;SDS011;4124;50.856;3.634;2022-07-03T04:44:33;4.10;;;1.20;;
8165;SDS011;4124;50.856;3.634;2022-07-03T04:46:58;3.30;;;1.50;;
8165;SDS011;4124;50.856;3.634;2022-07-03T04:49:24;2.17;;;1.40;;
8165;SDS011;4124;50.856;3.634;2022-07-03T04:51:49;1.53;;;1.30;;
8165;SDS011;4124;50.856;3.634;2022-07-03T04:54:14;1.30;;;1.20;;
8165;SDS011;4124;50.856;3.634;2022-07-03T04:56:40;1.60;;;1.40;;
8165;SDS011;4124;50.856;3.634;2022-07-03T04:59:05;1.60;;;1.40;;
8165;SDS011;4124;50.856;3.634;2022-07-03T05:01:30;4.23;;;1.60;;
8165;SDS011;4124;50.856;3.634;2022-07-03T05:03:55;4.90;;;2.40;;
8165;SDS011;4124;50.856;3.634;2022-07-03T05:06:21;3.63;;;1.90;;
8165;SDS011;4124;50.856;3.634;2022-07-03T05:08:46;3.70;;;1.87;;
8165;SDS011;4124;50.856;3.634;2022-07-03T05:11:11;4.40;;;2.00;;
8165;SDS011;4124;50.856;3.634;2022-07-03T05:13:37;4.73;;;2.00;;
8165;SDS011;4124;50.856;3.634;2022-07-03T05:16:02;3.13;;;1.77;;
8165;SDS011;4124;50.856;3.634;2022-07-03T05:18:27;8.30;;;2.00;;
8165;SDS011;4124;50.856;3.634;2022-07-03T05:20:52;8.40;;;1.97;;
8165;SDS011;4124;50.856;3.634;2022-07-03T05:23:18;4.47;;;2.07;;
8165;SDS011;4124;50.856;3.634;2022-07-03T05:25:43;4.40;;;2.17;;
8165;SDS011;4124;50.856;3.634;2022-07-03T05:28:08;4.40;;;2.00;;
8165;SDS011;4124;50.856;3.634;2022-07-03T05:30:33;4.20;;;1.97;;
8165;SDS011;4124;50.856;3.634;2022-07-03T05:32:59;7.27;;;1.87;;
8165;SDS011;4124;50.856;3.634;2022-07-03T05:35:24;7.03;;;2.20;;
8165;SDS011;4124;50.856;3.634;2022-07-03T05:37:49;4.40;;;2.40;;
8165;SDS011;4124;50.856;3.634;2022-07-03T05:40:15;5.90;;;2.27;;
8165;SDS011;4124;50.856;3.634;2022-07-03T05:42:40;4.10;;;1.93;;
8165;SDS011;4124;50.856;3.634;2022-07-03T05:45:06;3.93;;;2.27;;
8165;SDS011;4124;50.856;3.634;2022-07-03T05:47:32;4.63;;;1.87;;
8165;SDS011;4124;50.856;3.634;2022-07-03T05:49:58;5.00;;;2.17;;
8165;SDS011;4124;50.856;3.634;2022-07-03T05:52:23;7.10;;;2.20;;
8165;SDS011;4124;50.856;3.634;2022-07-03T05:54:48;4.27;;;2.30;;
8165;SDS011;4124;50.856;3.634;2022-07-03T05:57:13;3.70;;;2.57;;
8165;SDS011;4124;50.856;3.634;2022-07-03T05:59:39;5.63;;;2.50;;
8165;SDS011;4124;50.856;3.634;2022-07-03T06:02:04;4.57;;;2.40;;
8165;SDS011;4124;50.856;3.634;2022-07-03T06:04:29;9.93;;;3.10;;
8165;SDS011;4124;50.856;3.634;2022-07-03T06:06:55;5.57;;;2.10;;
8165;SDS011;4124;50.856;3.634;2022-07-03T06:09:21;4.23;;;2.20;;
8165;SDS011;4124;50.856;3.634;2022-07-03T06:11:46;6.60;;;2.23;;
8165;SDS011;4124;50.856;3.634;2022-07-03T06:14:12;7.70;;;2.50;;
8165;SDS011;4124;50.856;3.634;2022-07-03T06:16:37;6.37;;;2.37;;
8165;SDS011;4124;50.856;3.634;2022-07-03T06:19:03;5.93;;;2.60;;
8165;SDS011;4124;50.856;3.634;2022-07-03T06:21:28;6.77;;;2.57;;
8165;SDS011;4124;50.856;3.634;2022-07-03T06:23:53;4.10;;;2.10;;
8165;SDS011;4124;50.856;3.634;2022-07-03T06:26:18;7.27;;;2.30;;
8165;SDS011;4124;50.856;3.634;2022-07-03T06:28:44;4.70;;;2.47;;
8165;SDS011;4124;50.856;3.634;2022-07-03T06:31:09;3.50;;;2.00;;
8165;SDS011;4124;50.856;3.634;2022-07-03T06:33:35;9.93;;;2.37;;
8165;SDS011;4124;50.856;3.634;2022-07-03T06:36:00;6.30;;;2.30;;
8165;SDS011;4124;50.856;3.634;2022-07-03T06:38:25;2.80;;;1.70;;
8165;SDS011;4124;50.856;3.634;2022-07-03T06:40:50;4.60;;;2.03;;
8165;SDS011;4124;50.856;3.634;2022-07-03T06:43:16;6.30;;;2.00;;
8165;SDS011;4124;50.856;3.634;2022-07-03T06:45:41;5.57;;;1.63;;
8165;SDS011;4124;50.856;3.634;2022-07-03T06:48:07;4.73;;;1.70;;
8165;SDS011;4124;50.856;3.634;2022-07-03T06:50:32;6.10;;;2.13;;
8165;SDS011;4124;50.856;3.634;2022-07-03T06:52:57;7.90;;;2.67;;
8165;SDS011;4124;50.856;3.634;2022-07-03T06:55:22;6.60;;;2.20;;
8165;SDS011;4124;50.856;3.634;2022-07-03T06:57:48;5.23;;;2.07;;
8165;SDS011;4124;50.856;3.634;2022-07-03T07:00:13;7.07;;;3.03;;
8165;SDS011;4124;50.856;3.634;2022-07-03T07:02:38;4.63;;;2.00;;
8165;SDS011;4124;50.856;3.634;2022-07-03T07:05:04;5.33;;;1.53;;
8165;SDS011;4124;50.856;3.634;2022-07-03T07:07:29;2.40;;;1.37;;
8165;SDS011;4124;50.856;3.634;2022-07-03T07:09:55;4.13;;;1.60;;
8165;SDS011;4124;50.856;3.634;2022-07-03T07:12:20;4.73;;;1.20;;
8165;SDS011;4124;50.856;3.634;2022-07-03T07:14:45;4.57;;;1.27;;
8165;SDS011;4124;50.856;3.634;2022-07-03T07:17:10;3.30;;;1.30;;
8165;SDS011;4124;50.856;3.634;2022-07-03T07:19:36;3.30;;;1.40;;
8165;SDS011;4124;50.856;3.634;2022-07-03T07:22:01;3.23;;;1.17;;
8165;SDS011;4124;50.856;3.634;2022-07-03T07:24:27;4.37;;;1.40;;
8165;SDS011;4124;50.856;3.634;2022-07-03T07:26:52;1.97;;;1.10;;
8165;SDS011;4124;50.856;3.634;2022-07-03T07:29:18;2.80;;;1.30;;
8165;SDS011;4124;50.856;3.634;2022-07-03T07:31:43;3.93;;;1.30;;
8165;SDS011;4124;50.856;3.634;2022-07-03T07:34:08;7.67;;;1.30;;
8165;SDS011;4124;50.856;3.634;2022-07-03T07:36:33;1.53;;;1.20;;
8165;SDS011;4124;50.856;3.634;2022-07-03T07:38:59;5.70;;;1.20;;
8165;SDS011;4124;50.856;3.634;2022-07-03T07:41:24;3.83;;;1.60;;
8165;SDS011;4124;50.856;3.634;2022-07-03T07:43:50;5.90;;;1.97;;
8165;SDS011;4124;50.856;3.634;2022-07-03T07:46:15;5.20;;;1.30;;
8165;SDS011;4124;50.856;3.634;2022-07-03T07:48:40;3.37;;;1.30;;
8165;SDS011;4124;50.856;3.634;2022-07-03T07:51:05;3.70;;;1.20;;
8165;SDS011;4124;50.856;3.634;2022-07-03T07:53:31;3.87;;;1.20;;
8165;SDS011;4124;50.856;3.634;2022-07-03T07:55:56;3.00;;;1.20;;
8165;SDS011;4124;50.856;3.634;2022-07-03T07:58:21;4.40;;;1.47;;
8165;SDS011;4124;50.856;3.634;2022-07-03T08:00:47;2.33;;;1.07;;
8165;SDS011;4124;50.856;3.634;2022-07-03T08:03:31;3.70;;;1.20;;
8165;SDS011;4124;50.856;3.634;2022-07-03T08:06:15;3.23;;;1.53;;
8165;SDS011;4124;50.856;3.634;2022-07-03T08:08:40;3.27;;;1.30;;
8165;SDS011;4124;50.856;3.634;2022-07-03T08:11:05;3.80;;;1.53;;
8165;SDS011;4124;50.856;3.634;2022-07-03T08:13:31;7.30;;;1.60;;
8165;SDS011;4124;50.856;3.634;2022-07-03T08:15:56;3.47;;;1.30;;
8165;SDS011;4124;50.856;3.634;2022-07-03T08:18:21;2.67;;;1.10;;
8165;SDS011;4124;50.856;3.634;2022-07-03T08:20:46;1.93;;;0.97;;
8165;SDS011;4124;50.856;3.634;2022-07-03T08:23:12;5.07;;;1.20;;
8165;SDS011;4124;50.856;3.634;2022-07-03T08:25:37;2.30;;;1.10;;
8165;SDS011;4124;50.856;3.634;2022-07-03T08:28:02;3.30;;;1.40;;
8165;SDS011;4124;50.856;3.634;2022-07-03T08:30:28;2.60;;;1.23;;
8165;SDS011;4124;50.856;3.634;2022-07-03T08:32:54;7.30;;;1.50;;
8165;SDS011;4124;50.856;3.634;2022-07-03T08:35:20;12.53;;;1.20;;
8165;SDS011;4124;50.856;3.634;2022-07-03T08:37:45;4.30;;;1.30;;
8165;SDS011;4124;50.856;3.634;2022-07-03T08:40:12;3.07;;;1.23;;
8165;SDS011;4124;50.856;3.634;2022-07-03T08:42:39;1.90;;;1.17;;
8165;SDS011;4124;50.856;3.634;2022-07-03T08:45:07;3.43;;;1.30;;
8165;SDS011;4124;50.856;3.634;2022-07-03T08:47:34;5.00;;;1.30;;
8165;SDS011;4124;50.856;3.634;2022-07-03T08:50:01;4.63;;;1.77;;
8165;SDS011;4124;50.856;3.634;2022-07-03T08:52:27;8.10;;;1.70;;
8165;SDS011;4124;50.856;3.634;2022-07-03T08:54:53;4.20;;;1.40;;
8165;SDS011;4124;50.856;3.634;2022-07-03T08:57:18;2.70;;;1.47;;
8165;SDS011;4124;50.856;3.634;2022-07-03T08:59:44;3.10;;;1.67;;
8165;SDS011;4124;50.856;3.634;2022-07-03T09:02:11;2.23;;;1.60;;
8165;SDS011;4124;50.856;3.634;2022-07-03T09:04:37;4.53;;;1.50;;
8165;SDS011;4124;50.856;3.634;2022-07-03T09:07:04;2.93;;;1.50;;
8165;SDS011;4124;50.856;3.634;2022-07-03T09:09:31;3.40;;;1.70;;
8165;SDS011;4124;50.856;3.634;2022-07-03T09:11:57;4.07;;;1.50;;
8165;SDS011;4124;50.856;3.634;2022-07-03T09:14:23;4.10;;;1.70;;
8165;SDS011;4124;50.856;3.634;2022-07-03T09:16:49;8.43;;;1.70;;
8165;SDS011;4124;50.856;3.634;2022-07-03T09:19:14;5.03;;;1.47;;
8165;SDS011;4124;50.856;3.634;2022-07-03T09:21:40;5.90;;;1.30;;
8165;SDS011;4124;50.856;3.634;2022-07-03T09:24:06;4.33;;;1.47;;
8165;SDS011;4124;50.856;3.634;2022-07-03T09:26:32;3.30;;;1.43;;
8165;SDS011;4124;50.856;3.634;2022-07-03T09:28:57;5.43;;;1.70;;
8165;SDS011;4124;50.856;3.634;2022-07-03T09:31:24;4.87;;;1.90;;
8165;SDS011;4124;50.856;3.634;2022-07-03T09:33:50;4.97;;;2.60;;
8165;SDS011;4124;50.856;3.634;2022-07-03T09:36:16;6.77;;;1.60;;
8165;SDS011;4124;50.856;3.634;2022-07-03T09:38:44;8.80;;;1.97;;
8165;SDS011;4124;50.856;3.634;2022-07-03T09:41:10;5.10;;;1.70;;
8165;SDS011;4124;50.856;3.634;2022-07-03T09:43:35;4.70;;;1.60;;
8165;SDS011;4124;50.856;3.634;2022-07-03T09:46:02;4.70;;;1.40;;
8165;SDS011;4124;50.856;3.634;2022-07-03T09:48:28;3.00;;;1.60;;
8165;SDS011;4124;50.856;3.634;2022-07-03T09:56:32;5.17;;;1.57;;
8165;SDS011;4124;50.856;3.634;2022-07-03T09:58:59;5.00;;;1.90;;
8165;SDS011;4124;50.856;3.634;2022-07-03T10:01:24;2.83;;;1.20;;
8165;SDS011;4124;50.856;3.634;2022-07-03T10:03:49;3.47;;;1.20;;
8165;SDS011;4124;50.856;3.634;2022-07-03T10:06:15;3.00;;;1.30;;
8165;SDS011;4124;50.856;3.634;2022-07-03T10:08:41;2.50;;;1.30;;
8165;SDS011;4124;50.856;3.634;2022-07-03T10:11:07;3.57;;;1.40;;
8165;SDS011;4124;50.856;3.634;2022-07-03T10:13:33;6.80;;;1.30;;
8165;SDS011;4124;50.856;3.634;2022-07-03T10:16:01;2.77;;;1.50;;
8165;SDS011;4124;50.856;3.634;2022-07-03T10:18:28;3.27;;;1.00;;
8165;SDS011;4124;50.856;3.634;2022-07-03T10:20:54;2.40;;;1.17;;
8165;SDS011;4124;50.856;3.634;2022-07-03T10:23:21;4.30;;;1.13;;
8165;SDS011;4124;50.856;3.634;2022-07-03T10:25:47;5.53;;;1.10;;
8165;SDS011;4124;50.856;3.634;2022-07-03T10:28:13;6.93;;;1.30;;
8165;SDS011;4124;50.856;3.634;2022-07-03T10:30:39;2.67;;;1.23;;
8165;SDS011;4124;50.856;3.634;2022-07-03T10:33:05;5.10;;;1.40;;
8165;SDS011;4124;50.856;3.634;2022-07-03T10:43:25;3.37;;;1.17;;
8165;SDS011;4124;50.856;3.634;2022-07-03T10:46:10;3.33;;;1.13;;
8165;SDS011;4124;50.856;3.634;2022-07-03T10:51:20;2.30;;;1.30;;
8165;SDS011;4124;50.856;3.634;2022-07-03T10:53:46;1.57;;;1.10;;
8165;SDS011;4124;50.856;3.634;2022-07-03T10:56:11;2.43;;;1.20;;
8165;SDS011;4124;50.856;3.634;2022-07-03T11:03:58;2.03;;;1.30;;
8165;SDS011;4124;50.856;3.634;2022-07-03T11:09:11;2.43;;;1.23;;
8165;SDS011;4124;50.856;3.634;2022-07-03T11:11:42;4.23;;;1.27;;
8165;SDS011;4124;50.856;3.634;2022-07-03T11:14:24;2.77;;;1.30;;
8165;SDS011;4124;50.856;3.634;2022-07-03T11:17:01;3.37;;;1.40;;
8165;SDS011;4124;50.856;3.634;2022-07-03T11:19:34;5.80;;;1.40;;
8165;SDS011;4124;50.856;3.634;2022-07-03T11:22:00;3.03;;;1.07;;
8165;SDS011;4124;50.856;3.634;2022-07-03T11:24:33;1.57;;;0.90;;
8165;SDS011;4124;50.856;3.634;2022-07-03T11:29:52;1.50;;;1.10;;
8165;SDS011;4124;50.856;3.634;2022-07-03T11:35:03;2.30;;;1.10;;
8165;SDS011;4124;50.856;3.634;2022-07-03T11:37:28;2.80;;;1.10;;
8165;SDS011;4124;50.856;3.634;2022-07-03T11:39:55;1.43;;;0.97;;
8165;SDS011;4124;50.856;3.634;2022-07-03T11:42:22;2.47;;;1.20;;
8165;SDS011;4124;50.856;3.634;2022-07-03T11:44:47;1.80;;;1.00;;
8165;SDS011;4124;50.856;3.634;2022-07-03T11:47:13;2.73;;;1.10;;
8165;SDS011;4124;50.856;3.634;2022-07-03T11:49:47;3.67;;;1.17;;
8165;SDS011;4124;50.856;3.634;2022-07-03T11:52:12;2.50;;;1.20;;
8165;SDS011;4124;50.856;3.634;2022-07-03T11:54:50;2.93;;;1.10;;
8165;SDS011;4124;50.856;3.634;2022-07-03T11:57:16;2.00;;;1.10;;
8165;SDS011;4124;50.856;3.634;2022-07-03T11:59:41;1.77;;;1.00;;
8165;SDS011;4124;50.856;3.634;2022-07-03T12:02:06;3.30;;;1.10;;
8165;SDS011;4124;50.856;3.634;2022-07-03T12:04:32;7.20;;;1.10;;
8165;SDS011;4124;50.856;3.634;2022-07-03T12:06:58;1.33;;;0.90;;
8165;SDS011;4124;50.856;3.634;2022-07-03T12:09:27;1.47;;;1.03;;
8165;SDS011;4124;50.856;3.634;2022-07-03T12:12:01;4.07;;;1.00;;
8165;SDS011;4124;50.856;3.634;2022-07-03T12:17:01;1.27;;;1.00;;
8165;SDS011;4124;50.856;3.634;2022-07-03T12:19:26;4.93;;;1.00;;
8165;SDS011;4124;50.856;3.634;2022-07-03T12:21:52;1.57;;;1.17;;
8165;SDS011;4124;50.856;3.634;2022-07-03T12:24:17;2.50;;;1.03;;
8165;SDS011;4124;50.856;3.634;2022-07-03T12:26:42;1.80;;;1.00;;
8165;SDS011;4124;50.856;3.634;2022-07-03T12:29:08;1.77;;;1.40;;
8165;SDS011;4124;50.856;3.634;2022-07-03T12:31:34;1.40;;;1.20;;
8165;SDS011;4124;50.856;3.634;2022-07-03T12:34:00;3.60;;;1.10;;
8165;SDS011;4124;50.856;3.634;2022-07-03T12:36:25;1.00;;;0.90;;
8165;SDS011;4124;50.856;3.634;2022-07-03T12:38:51;2.70;;;1.20;;
8165;SDS011;4124;50.856;3.634;2022-07-03T12:41:17;1.33;;;1.20;;
8165;SDS011;4124;50.856;3.634;2022-07-03T12:43:44;1.93;;;1.13;;
8165;SDS011;4124;50.856;3.634;2022-07-03T12:48:48;1.60;;;1.00;;
8165;SDS011;4124;50.856;3.634;2022-07-03T12:51:14;2.60;;;1.00;;
8165;SDS011;4124;50.856;3.634;2022-07-03T12:53:39;1.20;;;0.90;;
8165;SDS011;4124;50.856;3.634;2022-07-03T12:56:07;2.70;;;1.30;;
8165;SDS011;4124;50.856;3.634;2022-07-03T12:58:35;1.80;;;1.20;;
8165;SDS011;4124;50.856;3.634;2022-07-03T13:01:26;2.07;;;1.00;;
8165;SDS011;4124;50.856;3.634;2022-07-03T13:03:52;2.27;;;0.90;;
8165;SDS011;4124;50.856;3.634;2022-07-03T13:06:17;2.43;;;1.27;;
8165;SDS011;4124;50.856;3.634;2022-07-03T13:08:57;1.40;;;1.10;;
8165;SDS011;4124;50.856;3.634;2022-07-03T13:11:33;1.97;;;0.93;;
8165;SDS011;4124;50.856;3.634;2022-07-03T13:14:02;1.63;;;0.90;;
8165;SDS011;4124;50.856;3.634;2022-07-03T13:16:28;1.90;;;1.20;;
8165;SDS011;4124;50.856;3.634;2022-07-03T13:18:59;1.57;;;0.90;;
8165;SDS011;4124;50.856;3.634;2022-07-03T13:21:25;2.00;;;1.10;;
8165;SDS011;4124;50.856;3.634;2022-07-03T13:23:50;1.00;;;0.90;;
8165;SDS011;4124;50.856;3.634;2022-07-03T13:26:15;2.43;;;1.20;;
8165;SDS011;4124;50.856;3.634;2022-07-03T13:28:40;3.73;;;1.00;;
8165;SDS011;4124;50.856;3.634;2022-07-03T13:31:06;1.60;;;0.90;;
8165;SDS011;4124;50.856;3.634;2022-07-03T13:33:31;4.20;;;1.47;;
8165;SDS011;4124;50.856;3.634;2022-07-03T13:35:56;2.13;;;1.00;;
8165;SDS011;4124;50.856;3.634;2022-07-03T13:38:22;1.87;;;1.10;;
8165;SDS011;4124;50.856;3.634;2022-07-03T13:40:47;2.20;;;1.27;;
8165;SDS011;4124;50.856;3.634;2022-07-03T13:43:13;1.40;;;1.10;;
8165;SDS011;4124;50.856;3.634;2022-07-03T13:45:38;1.43;;;0.90;;
8165;SDS011;4124;50.856;3.634;2022-07-03T13:48:03;2.70;;;1.00;;
8165;SDS011;4124;50.856;3.634;2022-07-03T13:50:29;1.50;;;1.00;;
8165;SDS011;4124;50.856;3.634;2022-07-03T13:52:54;1.37;;;1.00;;
8165;SDS011;4124;50.856;3.634;2022-07-03T13:55:19;5.07;;;1.23;;
8165;SDS011;4124;50.856;3.634;2022-07-03T13:57:44;2.03;;;1.10;;
8165;SDS011;4124;50.856;3.634;2022-07-03T14:00:10;14.93;;;1.27;;
8165;SDS011;4124;50.856;3.634;2022-07-03T14:02:36;3.80;;;1.20;;
8165;SDS011;4124;50.856;3.634;2022-07-03T14:05:01;1.20;;;1.00;;
8165;SDS011;4124;50.856;3.634;2022-07-03T14:07:26;2.20;;;1.20;;
8165;SDS011;4124;50.856;3.634;2022-07-03T14:09:52;2.80;;;1.00;;
8165;SDS011;4124;50.856;3.634;2022-07-03T14:12:17;1.70;;;1.10;;
8165;SDS011;4124;50.856;3.634;2022-07-03T14:14:42;2.20;;;1.00;;
8165;SDS011;4124;50.856;3.634;2022-07-03T14:17:07;2.80;;;1.33;;
8165;SDS011;4124;50.856;3.634;2022-07-03T14:19:32;4.40;;;1.23;;
8165;SDS011;4124;50.856;3.634;2022-07-03T14:21:58;2.00;;;1.00;;
8165;SDS011;4124;50.856;3.634;2022-07-03T14:24:23;5.10;;;1.00;;
8165;SDS011;4124;50.856;3.634;2022-07-03T14:26:48;1.97;;;1.00;;
8165;SDS011;4124;50.856;3.634;2022-07-03T14:29:32;1.53;;;1.00;;
8165;SDS011;4124;50.856;3.634;2022-07-03T14:32:16;4.40;;;1.37;;
8165;SDS011;4124;50.856;3.634;2022-07-03T14:34:54;1.30;;;1.00;;
8165;SDS011;4124;50.856;3.634;2022-07-03T14:37:19;1.20;;;1.00;;
8165;SDS011;4124;50.856;3.634;2022-07-03T14:39:45;2.33;;;1.00;;
8165;SDS011;4124;50.856;3.634;2022-07-03T14:42:10;2.70;;;1.07;;
8165;SDS011;4124;50.856;3.634;2022-07-03T14:44:35;1.20;;;0.87;;
8165;SDS011;4124;50.856;3.634;2022-07-03T14:47:01;3.00;;;0.93;;
8165;SDS011;4124;50.856;3.634;2022-07-03T14:49:26;2.73;;;0.93;;
8165;SDS011;4124;50.856;3.634;2022-07-03T14:51:51;2.00;;;1.00;;
8165;SDS011;4124;50.856;3.634;2022-07-03T14:54:18;5.33;;;1.13;;
8165;SDS011;4124;50.856;3.634;2022-07-03T14:56:54;4.27;;;0.87;;
8165;SDS011;4124;50.856;3.634;2022-07-03T14:59:24;1.77;;;1.10;;
8165;SDS011;4124;50.856;3.634;2022-07-03T15:01:52;1.13;;;0.80;;
8165;SDS011;4124;50.856;3.634;2022-07-03T15:04:27;1.93;;;1.10;;
8165;SDS011;4124;50.856;3.634;2022-07-03T15:06:56;1.67;;;1.03;;
8165;SDS011;4124;50.856;3.634;2022-07-03T15:09:25;2.63;;;1.03;;
8165;SDS011;4124;50.856;3.634;2022-07-03T15:11:53;1.00;;;0.80;;
8165;SDS011;4124;50.856;3.634;2022-07-03T15:14:39;2.53;;;1.10;;
8165;SDS011;4124;50.856;3.634;2022-07-03T15:17:04;3.20;;;1.00;;
8165;SDS011;4124;50.856;3.634;2022-07-03T15:19:30;2.80;;;1.00;;
8165;SDS011;4124;50.856;3.634;2022-07-03T15:21:58;2.70;;;1.20;;
8165;SDS011;4124;50.856;3.634;2022-07-03T15:24:23;3.37;;;1.07;;
8165;SDS011;4124;50.856;3.634;2022-07-03T15:26:52;2.67;;;1.03;;
8165;SDS011;4124;50.856;3.634;2022-07-03T15:29:19;1.40;;;1.00;;
8165;SDS011;4124;50.856;3.634;2022-07-03T15:31:44;2.90;;;1.00;;
8165;SDS011;4124;50.856;3.634;2022-07-03T15:34:11;2.50;;;1.00;;
8165;SDS011;4124;50.856;3.634;2022-07-03T15:36:48;3.10;;;1.20;;
8165;SDS011;4124;50.856;3.634;2022-07-03T15:39:24;1.70;;;0.97;;
8165;SDS011;4124;50.856;3.634;2022-07-03T15:44:31;1.50;;;1.00;;
8165;SDS011;4124;50.856;3.634;2022-07-03T15:47:03;0.93;;;0.83;;
8165;SDS011;4124;50.856;3.634;2022-07-03T15:49:30;2.10;;;1.20;;
8165;SDS011;4124;50.856;3.634;2022-07-03T15:52:00;1.83;;;0.90;;
8165;SDS011;4124;50.856;3.634;2022-07-03T15:54:33;2.30;;;1.00;;
8165;SDS011;4124;50.856;3.634;2022-07-03T15:57:01;1.90;;;1.00;;
8165;SDS011;4124;50.856;3.634;2022-07-03T15:59:28;3.60;;;1.00;;
8165;SDS011;4124;50.856;3.634;2022-07-03T16:01:54;1.40;;;0.90;;
8165;SDS011;4124;50.856;3.634;2022-07-03T16:07:21;1.27;;;0.90;;
8165;SDS011;4124;50.856;3.634;2022-07-03T16:09:47;3.47;;;0.97;;
8165;SDS011;4124;50.856;3.634;2022-07-03T16:12:14;3.13;;;0.90;;
8165;SDS011;4124;50.856;3.634;2022-07-03T16:14:49;1.30;;;0.80;;
8165;SDS011;4124;50.856;3.634;2022-07-03T16:17:18;2.10;;;1.00;;
8165;SDS011;4124;50.856;3.634;2022-07-03T16:19:44;1.10;;;0.83;;
8165;SDS011;4124;50.856;3.634;2022-07-03T16:22:10;1.20;;;0.90;;
8165;SDS011;4124;50.856;3.634;2022-07-03T16:24:36;1.80;;;0.90;;